Terminal Aerodrome Forecast
Issued by NWS

Home | Current Version | Previous Version | Text Only | Print | Product List | Glossary On
Versions: 1 2 3 4 5 6 7 8 9 10 11 12 13 14 15
000
FTUS42 KMLB 251100
TAFFPR
TAF
KFPR 251136Z 2512/2612 30003KT P6SM FEW030 SCT050 BKN250
      TEMPO 2512/2513 6SM BR SCT015 BKN040
     FM251500 30005KT P6SM SCT010 SCT025 BKN250
     FM252200 36004KT P6SM SCT015 SCT025 BKN250
     FM260400 01006KT P6SM SCT010 SCT025=

USA.gov is the U.S. government's official web portal to all federal, state and local government web resources and services.